Flight Track Log - Related Links

Times and Time Zones

All times are in EDT time to prevent confusion due to time zone crossing. See the KAP927 flight status page for this flight to view local times or setup timezone preferences in your user account.

Time Position Orientation Groundspeed Altitude Reporting Facility
EDT Latitude Longitude Course Direction KTS MPH feet Rate Location/Type
Thu 06:53:09 PM 42.7686 -73.8656 331° Northwest 99 114 1,800  Level Boston Center
Thu 06:54:10 PM 42.7956 -73.8861 331° Northwest 101 116 2,300 495 Climbing Boston Center
Thu 06:54:58 PM 42.8119 -73.9061 318° Northwest 108 124 2,700 495 Climbing Boston Center
Thu 06:55:59 PM 42.8389 -73.9267 331° Northwest 105 121 3,200 443 Climbing Boston Center
Thu 06:57:00 PM 42.8636 -73.9497 326° Northwest 115 132 3,600 397 Climbing Boston Center
Thu 06:58:00 PM 42.8903 -73.9675 334° Northwest 112 129 4,000 397 Climbing Boston Center
Thu 06:59:01 PM 42.9214 -73.9939 328° Northwest 111 128 4,400 393 Climbing Boston Center
Thu 07:00:02 PM 42.9481 -74.0144 331° Northwest 113 130 4,800 446 Climbing Boston Center
Thu 07:01:02 PM 42.9747 -74.0378 327° Northwest 105 121 5,300 397 Climbing Boston Center
Thu 07:02:03 PM 42.9997 -74.0556 333° Northwest 107 123 5,600 344 Climbing Boston Center
Thu 07:03:04 PM 43.0264 -74.0761 331° Northwest 109 125 6,000 347 Climbing Boston Center
Thu 07:04:04 PM 43.0511 -74.0967 329° Northwest 112 129 6,300 237 Climbing Boston Center
Thu 07:04:20 PM 43.0614 -74.1025 337° Northwest 113 130 6,300 393 Level Boston Center
Thu 07:05:05 PM 43.0778 -74.1200 322° Northwest 111 128 6,700 500 Climbing Boston Center
Thu 07:05:20 PM 43.0842 -74.1231 341° North 113 130 6,800 400 Climbing Boston Center
Thu 07:06:20 PM 43.1108 -74.1464 327° Northwest 121 139 7,200 500 Climbing Boston Center
Thu 07:07:20 PM 43.1397 -74.1672 332° Northwest 116 133 7,800 550 Climbing Boston Center
Thu 07:08:20 PM 43.1686 -74.1908 329° Northwest 116 133 8,300 400 Climbing Boston Center
Thu 07:09:20 PM 43.1972 -74.2144 329° Northwest 121 139 8,600 400 Climbing Boston Center
Thu 07:10:20 PM 43.2242 -74.2381 327° Northwest 121 139 9,100 600 Climbing Boston Center
Thu 07:11:20 PM 43.2528 -74.2589 332° Northwest 121 139 9,800 600 Climbing Boston Center
Thu 07:12:20 PM 43.2817 -74.2853 326° Northwest 121 139 10,300 300 Climbing Boston Center
Thu 07:13:20 PM 43.3106 -74.3092 329° Northwest 121 139 10,400 100 Climbing Boston Center
Thu 07:14:20 PM 43.3350 -74.3297 329° Northwest 126 145 10,500 50 Climbing Boston Center
Thu 07:15:20 PM 43.3742 -74.3653 327° Northwest 126 145 10,500 50 Level Boston Center
Thu 07:16:20 PM 43.4008 -74.3833 334° Northwest 126 145 10,600 50 Climbing Boston Center
Thu 07:17:20 PM 43.4317 -74.4100 328° Northwest 126 145 10,600  Level Boston Center
Thu 07:18:20 PM 43.4625 -74.4339 331° Northwest 120 138 10,600  Level Boston Center
Thu 07:19:20 PM 43.4956 -74.4608 329° Northwest 127 146 10,600  Level Boston Center
Thu 07:20:20 PM 43.5303 -74.4878 331° Northwest 132 152 10,600 -50 Level Boston Center
Thu 07:21:20 PM 43.5611 -74.5144 328° Northwest 137 158 10,500  Descending Boston Center
Thu 07:22:20 PM 43.5919 -74.5386 330° Northwest 137 158 10,600 45 Climbing Boston Center
Thu 07:23:32 PM 43.6269 -74.5683 328° Northwest 132 152 10,600  Level Boston Center
Thu 07:24:32 PM 43.6575 -74.5953 327° Northwest 132 152 10,600 -50 Level Boston Center
Thu 07:25:32 PM 43.6864 -74.6194 329° Northwest 127 146 10,500  Descending Boston Center
Thu 07:26:32 PM 43.7089 -74.6372 330° Northwest 121 139 10,600 -100 Climbing Boston Center
Thu 07:27:32 PM 43.7458 -74.6644 332° Northwest 121 139 10,300 -550 Descending Boston Center
Thu 07:28:32 PM 43.7808 -74.6947 328° Northwest 134 154 9,500 -750 Descending Boston Center
Thu 07:29:32 PM 43.8239 -74.7278 331° Northwest 148 170 8,800 -650 Descending Boston Center
Thu 07:30:32 PM 43.8669 -74.7642 329° Northwest 167 192 8,200 -600 Descending Boston Center
Thu 07:31:32 PM 43.9081 -74.7944 332° Northwest 172 198 7,600 -550 Descending Boston Center
Thu 07:32:32 PM 43.9508 -74.8336 327° Northwest 172 198 7,100 -500 Descending Boston Center
Thu 07:33:32 PM 43.9919 -74.8669 330° Northwest 172 198 6,600 -500 Descending Boston Center
Thu 07:34:32 PM 44.0308 -74.9003 328° Northwest 172 198 6,100 -400 Descending Boston Center
Thu 07:35:32 PM 44.0697 -74.9339 328° Northwest 166 191 5,800 -300 Descending Boston Center
Thu 07:36:32 PM 44.1064 -74.9642 329° Northwest 166 191 5,500 -250 Descending Boston Center
Thu 07:37:32 PM 44.1372 -74.9917 327° Northwest 166 191 5,300 -250 Descending Boston Center
Thu 07:38:32 PM 44.1844 -75.0256 333° Northwest 166 191 5,000 -350 Descending Boston Center
Thu 07:39:32 PM 44.2192 -75.0531 330° Northwest 161 185 4,600 -350 Descending Boston Center
Thu 07:40:32 PM 44.2558 -75.0836 329° Northwest 156 180 4,300 -350 Descending Boston Center
Thu 07:41:32 PM 44.2928 -75.1144 329° Northwest 156 180 3,900 -350 Descending Boston Center
Thu 07:42:32 PM 44.3297 -75.1392 334° Northwest 156 180 3,600 -300 Descending Boston Center
Thu 07:43:32 PM 44.3644 -75.1697 328° Northwest 151 174 3,300 -300 Descending Boston Center
Thu 07:44:32 PM 44.4014 -75.1947 334° Northwest 151 174 3,000 -300 Descending Boston Center

Login

Don't have an account? Register now (free) for customized features, flight alerts, and more!